This is the latest recevied weather packets stored in our database for station/object OE5HCE. If no packets are shown the sender has not sent any weather packets the latest 1 day(s).
| Time | Temp. | Humidity | Pressure | Rain* | Wind** | Luminosity | Snow |
|---|---|---|---|---|---|---|---|
| 1777988704 | 27.78° C | 35% | 1004.5 hPa | 0 mm | 0 m/s | 628 W/m² | - |
| 1777987858 | 27.78° C | 36% | 1004.5 hPa | 0 mm | 0 m/s | 661 W/m² | - |
| 1777986959 | 27.22° C | 39% | 1004.8 hPa | 0 mm | 0 m/s | 701 W/m² | - |
| 1777986053 | 26.67° C | 35% | 1004.9 hPa | 0 mm | 0 m/s | 570 W/m² | - |
| 1777985158 | 25.56° C | 37% | 1005.2 hPa | 0 mm | 0 m/s | 302 W/m² | - |
| 1777984256 | 27.22° C | 36% | 1005.4 hPa | 0 mm | 0 m/s | 629 W/m² | - |
| 1777983347 | 26.67° C | 37% | 1005.5 hPa | 0 mm | 0 m/s | 617 W/m² | - |
| 1777982459 | 26.11° C | 39% | 1005.8 hPa | 0 mm | 0 m/s | 631 W/m² | - |
| 1777981541 | 26.11° C | 37% | 1005.9 hPa | 0 mm | 0 m/s | 812 W/m² | - |
| 1777980644 | 25° C | 40% | 1006.1 hPa | 0 mm | 0 m/s | 856 W/m² | - |
| 1777979737 | 26.11° C | 43% | 1006.3 hPa | 0 mm | 0 m/s | 729 W/m² | - |
| 1777978835 | 24.44° C | 41% | 1006.5 hPa | 0 mm | 0 m/s | 401 W/m² | - |
| 1777977932 | 25° C | 42% | 1006.7 hPa | 0 mm | 0 m/s | 647 W/m² | - |
| 1777977034 | 24.44° C | 44% | 1006.9 hPa | 0 mm | 0 m/s | 846 W/m² | - |
| 1777976125 | 23.89° C | 46% | 1007 hPa | 0 mm | 0 m/s | 814 W/m² | - |
| 1777975224 | 23.33° C | 49% | 1007.2 hPa | 0 mm | 0 m/s | 612 W/m² | - |
| 1777974319 | 22.78° C | 49% | 1007.3 hPa | 0 mm | 0 m/s | 768 W/m² | - |
| 1777973414 | 22.22° C | 52% | 1007.4 hPa | 0 mm | 0 m/s | 729 W/m² | - |
| 1777972513 | 22.22° C | 54% | 1007.6 hPa | 0 mm | 0 m/s | 696 W/m² | - |
| 1777971609 | 21.67° C | 57% | 1007.7 hPa | 0 mm | 0 m/s | 483 W/m² | - |
| 1777970713 | 21.11° C | 56% | 1007.8 hPa | 0 mm | 0 m/s | 237 W/m² | - |
| 1777969802 | 20.56° C | 54% | 1007.9 hPa | 0 mm | 0 m/s | 67 W/m² | - |
| 1777968959 | 20° C | 55% | 1007.9 hPa | 0 mm | 0 m/s | 58 W/m² | - |
| 1777968066 | 19.44° C | 57% | 1008.1 hPa | 0 mm | 0 m/s | 53 W/m² | - |
| 1777967150 | 18.89° C | 62% | 1008.3 hPa | 0 mm | 0 m/s | 49 W/m² | - |
* Rain latest hour (hover to see other rain measurements)
** Current wind speed in m/s (hover to see current wind gust speed)